createdAt,value
2022-08-09T00:00:47.884Z,17.90
2022-08-09T00:06:17.602Z,17.70
2022-08-09T00:11:24.697Z,17.50
2022-08-09T00:16:38.325Z,17.30
2022-08-09T00:21:55.619Z,17.20
2022-08-09T00:27:04.179Z,17.10
2022-08-09T00:32:27.004Z,17.00
2022-08-09T00:37:39.130Z,16.90
2022-08-09T00:44:11.923Z,16.80
2022-08-09T00:48:15.342Z,16.70
2022-08-09T00:53:24.346Z,16.70
2022-08-09T00:58:31.669Z,16.70
2022-08-09T01:03:50.313Z,16.60
2022-08-09T01:09:06.204Z,16.60
2022-08-09T01:14:19.039Z,16.60
2022-08-09T01:19:43.226Z,16.50
2022-08-09T01:25:01.235Z,16.50
2022-08-09T01:30:33.673Z,16.40
2022-08-09T01:35:42.317Z,16.40
2022-08-09T01:41:12.306Z,16.40
2022-08-09T01:46:24.553Z,16.30
2022-08-09T01:51:34.387Z,16.30
2022-08-09T01:56:41.219Z,16.20
2022-08-09T02:01:59.989Z,16.20
2022-08-09T02:07:15.569Z,16.10
2022-08-09T02:12:23.347Z,16.10
2022-08-09T02:18:00.042Z,16.10
2022-08-09T02:22:58.435Z,16.10
2022-08-09T02:28:09.558Z,16.10
2022-08-09T02:33:17.033Z,16.10
2022-08-09T02:38:28.889Z,16.00
2022-08-09T02:43:53.967Z,15.90
2022-08-09T02:49:02.798Z,15.90
2022-08-09T02:54:13.719Z,15.80
2022-08-09T02:59:26.354Z,15.80
2022-08-09T03:04:43.800Z,15.70
2022-08-09T03:09:56.241Z,15.60
2022-08-09T03:15:04.164Z,15.60
2022-08-09T03:20:13.628Z,15.50
2022-08-09T03:25:59.443Z,15.60
2022-08-09T03:30:43.398Z,15.60
2022-08-09T03:36:13.666Z,15.30
2022-08-09T03:41:15.358Z,15.20
2022-08-09T03:46:29.204Z,15.10
2022-08-09T03:51:55.814Z,15.10
2022-08-09T03:56:58.600Z,15.00
2022-08-09T04:02:02.064Z,14.90
2022-08-09T04:07:07.280Z,14.90
2022-08-09T04:12:49.726Z,14.80
2022-08-09T04:17:53.826Z,14.80
2022-08-09T04:23:02.286Z,14.80
2022-08-09T04:28:06.164Z,14.80
2022-08-09T04:33:09.472Z,14.80
2022-08-09T04:38:14.107Z,14.80
2022-08-09T04:43:18.504Z,14.80
2022-08-09T04:48:23.674Z,14.80
2022-08-09T05:07:19.060Z,14.80
2022-08-09T05:12:05.805Z,14.80
2022-08-09T05:17:15.246Z,14.90
2022-08-09T05:22:36.066Z,15.00
2022-08-09T05:27:59.605Z,15.10
2022-08-09T05:33:05.531Z,15.30
2022-08-09T05:38:12.914Z,15.70
2022-08-09T05:43:29.060Z,16.10
2022-08-09T05:48:36.732Z,16.30
2022-08-09T05:53:56.523Z,16.70
2022-08-09T05:59:03.097Z,17.00
2022-08-09T06:04:07.842Z,17.20
2022-08-09T06:09:40.603Z,17.50
2022-08-09T06:14:34.814Z,17.80
2022-08-09T06:19:41.637Z,18.10
2022-08-09T06:24:50.979Z,18.40
2022-08-09T06:30:04.261Z,18.60
2022-08-09T06:35:14.143Z,18.80
2022-08-09T06:40:23.924Z,19.20
2022-08-09T06:46:07.443Z,19.50
2022-08-09T06:50:54.413Z,19.80
2022-08-09T06:56:00.417Z,20.30
2022-08-09T07:01:03.427Z,20.70
2022-08-09T07:06:09.609Z,21.10
2022-08-09T07:11:17.615Z,21.50
2022-08-09T07:16:43.207Z,21.40
2022-08-09T07:21:57.133Z,21.70
2022-08-09T07:27:23.948Z,22.30
2022-08-09T07:32:32.632Z,22.70
2022-08-09T07:37:42.895Z,23.20
2022-08-09T07:42:54.271Z,23.80
2022-08-09T07:48:01.559Z,23.60
2022-08-09T07:53:11.309Z,23.60
2022-08-09T07:58:14.586Z,23.90
2022-08-09T08:03:17.912Z,24.30
2022-08-09T08:08:59.857Z,24.50
2022-08-09T08:13:56.803Z,25.00
2022-08-09T08:19:03.207Z,25.50
2022-08-09T08:24:16.635Z,25.40
2022-08-09T08:29:28.147Z,25.70
2022-08-09T08:34:33.693Z,26.10
2022-08-09T08:39:44.509Z,26.40
2022-08-09T08:44:47.750Z,26.70
2022-08-09T08:49:51.055Z,27.30
2022-08-09T08:55:03.675Z,27.40
2022-08-09T09:00:20.826Z,27.40
2022-08-09T09:05:58.152Z,28.10
2022-08-09T09:10:57.657Z,28.60
2022-08-09T09:16:00.942Z,28.80
2022-08-09T09:21:06.654Z,28.70
2022-08-09T09:26:14.438Z,29.10
2022-08-09T09:32:05.971Z,29.40
2022-08-09T09:36:55.601Z,29.40
2022-08-09T09:42:04.788Z,30.00
2022-08-09T09:47:15.436Z,30.30
2022-08-09T09:52:36.675Z,30.60
2022-08-09T09:58:00.619Z,31.00
2022-08-09T10:03:13.876Z,31.20
2022-08-09T10:08:27.818Z,31.30
2022-08-09T10:13:56.152Z,31.60
2022-08-09T10:19:04.355Z,32.00
2022-08-09T10:24:15.845Z,32.10
2022-08-09T10:29:59.330Z,32.10
2022-08-09T10:34:46.642Z,32.90
2022-08-09T10:39:54.324Z,33.00
2022-08-09T10:45:12.159Z,32.90
2022-08-09T10:50:31.198Z,33.00
2022-08-09T10:55:55.693Z,32.60
2022-08-09T11:03:14.481Z,33.40
2022-08-09T11:06:27.044Z,33.90
2022-08-09T11:12:12.170Z,33.80
2022-08-09T11:18:02.669Z,33.40
2022-08-09T11:23:15.499Z,33.70
2022-08-09T11:28:38.349Z,33.80
2022-08-09T11:33:50.358Z,34.10
2022-08-09T11:44:49.620Z,34.30
2022-08-09T11:50:56.287Z,34.60
2022-08-09T11:55:53.538Z,34.60
2022-08-09T12:01:03.552Z,34.50
2022-08-09T12:06:26.683Z,34.50
2022-08-09T12:12:03.336Z,35.00
2022-08-09T12:17:27.952Z,35.60
2022-08-09T12:22:33.003Z,35.20
2022-08-09T12:29:00.150Z,35.40
2022-08-09T12:33:08.406Z,35.60
2022-08-09T12:38:38.312Z,35.40
2022-08-09T12:44:06.841Z,35.50
2022-08-09T12:49:08.489Z,35.00
2022-08-09T12:54:12.035Z,35.30
2022-08-09T12:59:22.318Z,35.50
2022-08-09T13:04:37.694Z,34.30
2022-08-09T13:09:55.608Z,35.70
2022-08-09T13:15:20.630Z,35.80
2022-08-09T13:20:37.549Z,36.00
2022-08-09T13:25:56.132Z,35.70
2022-08-09T13:32:14.340Z,36.10
2022-08-09T13:36:41.159Z,36.40
2022-08-09T13:41:57.602Z,36.80
2022-08-09T13:47:26.425Z,36.30
2022-08-09T13:52:31.948Z,36.80
2022-08-09T13:57:39.573Z,36.50
2022-08-09T14:03:17.063Z,36.10
2022-08-09T14:08:13.226Z,35.80
2022-08-09T14:14:16.249Z,35.70
2022-08-09T14:19:03.695Z,35.80
2022-08-09T14:24:21.979Z,35.80
2022-08-09T14:30:36.360Z,36.10
2022-08-09T14:35:00.970Z,36.00
2022-08-09T14:40:05.218Z,36.00
2022-08-09T14:46:55.762Z,36.50
2022-08-09T14:50:54.978Z,36.60
2022-08-09T14:55:58.351Z,36.70
2022-08-09T15:01:02.391Z,36.50
2022-08-09T15:06:09.861Z,36.70
2022-08-09T15:11:20.110Z,35.80
2022-08-09T15:16:29.691Z,36.10
2022-08-09T15:21:56.703Z,36.10
2022-08-09T15:27:01.413Z,36.00
2022-08-09T15:32:05.813Z,35.50
2022-08-09T15:37:56.656Z,35.60
2022-08-09T15:43:08.206Z,35.10
2022-08-09T15:48:29.363Z,35.90
2022-08-09T15:54:05.507Z,35.50
2022-08-09T15:59:02.442Z,35.60
2022-08-09T16:04:06.530Z,35.00
2022-08-09T16:09:19.354Z,35.30
2022-08-09T16:14:43.104Z,34.90
2022-08-09T16:20:04.884Z,35.00
2022-08-09T16:25:16.092Z,34.80
2022-08-09T16:30:34.310Z,35.10
2022-08-09T16:35:56.635Z,34.90
2022-08-09T16:41:04.057Z,33.80
2022-08-09T16:46:07.849Z,34.10
2022-08-09T16:51:14.664Z,34.00
2022-08-09T16:56:25.289Z,34.70
2022-08-09T17:01:28.936Z,34.20
2022-08-09T17:08:41.526Z,34.00
2022-08-09T17:12:02.372Z,34.00
2022-08-09T17:17:23.367Z,34.10
2022-08-09T17:22:31.623Z,34.00
2022-08-09T17:27:38.448Z,33.60
2022-08-09T17:32:44.432Z,32.60
2022-08-09T17:38:11.244Z,32.40
2022-08-09T17:43:33.516Z,32.40
2022-08-09T17:48:39.373Z,32.60
2022-08-09T17:53:48.210Z,32.20
2022-08-09T17:58:57.933Z,31.70
2022-08-09T18:04:01.287Z,31.10
2022-08-09T18:09:06.385Z,29.60
2022-08-09T18:14:14.786Z,28.80
2022-08-09T18:20:53.884Z,28.10
2022-08-09T18:24:42.954Z,27.70
2022-08-09T18:30:39.813Z,27.40
2022-08-09T18:35:13.871Z,27.10
2022-08-09T18:40:27.106Z,26.90
2022-08-09T18:46:46.424Z,26.70
2022-08-09T18:50:59.134Z,26.40
2022-08-09T18:56:05.476Z,26.10
2022-08-09T19:01:11.211Z,25.90
2022-08-09T19:06:15.348Z,25.60
2022-08-09T19:11:18.515Z,25.50
2022-08-09T19:16:36.524Z,25.40
2022-08-09T19:21:52.349Z,25.20
2022-08-09T19:27:05.150Z,25.10
2022-08-09T19:32:09.833Z,25.00
2022-08-09T19:37:17.041Z,24.80
2022-08-09T19:42:20.799Z,24.60
2022-08-09T19:47:33.075Z,24.40
2022-08-09T19:52:49.681Z,24.20
2022-08-09T19:57:56.856Z,24.00
2022-08-09T20:04:08.401Z,23.90
2022-08-09T20:08:34.975Z,23.80
2022-08-09T20:13:39.612Z,23.80
2022-08-09T20:19:03.715Z,23.50
2022-08-09T20:24:11.091Z,23.30
2022-08-09T20:29:22.972Z,23.10
2022-08-09T20:34:29.021Z,22.90
2022-08-09T20:40:16.632Z,22.80
2022-08-09T20:45:56.886Z,22.80
2022-08-09T20:50:47.642Z,22.70
2022-08-09T20:56:02.583Z,22.80
2022-08-09T21:01:35.377Z,22.80
2022-08-09T21:06:46.788Z,22.60
2022-08-09T21:18:21.861Z,22.50
2022-08-09T21:22:41.144Z,22.50
2022-08-09T21:28:00.419Z,22.60
2022-08-09T21:33:05.978Z,22.40
2022-08-09T21:38:13.663Z,22.20
2022-08-09T21:43:56.784Z,22.00
2022-08-09T21:48:49.691Z,21.80
2022-08-09T21:53:58.573Z,21.70
2022-08-09T21:59:08.275Z,21.50
2022-08-09T22:04:11.161Z,21.40
2022-08-09T22:09:19.568Z,21.40
2022-08-09T22:14:24.573Z,21.40
2022-08-09T22:19:58.333Z,21.30
2022-08-09T22:26:05.281Z,21.20
2022-08-09T22:30:25.990Z,21.20
2022-08-09T22:36:00.681Z,21.20
2022-08-09T22:41:05.664Z,21.20
2022-08-09T22:48:14.132Z,21.20
2022-08-09T22:51:34.015Z,21.40
2022-08-09T22:56:43.428Z,21.50
2022-08-09T23:01:52.709Z,21.50
2022-08-09T23:07:13.961Z,21.50
2022-08-09T23:12:21.381Z,21.50
2022-08-09T23:17:25.428Z,21.40
2022-08-09T23:22:29.111Z,21.40
2022-08-09T23:27:34.174Z,21.30
2022-08-09T23:32:37.907Z,21.10
2022-08-09T23:37:42.086Z,21.00
2022-08-09T23:42:49.155Z,20.90
2022-08-09T23:47:53.884Z,20.80
2022-08-09T23:53:00.077Z,20.70
2022-08-09T23:58:25.838Z,20.50
